sensor_id;sensor_type;location;lat;lon;timestamp;noise_LAeq;noise_LA_min;noise_LA_max;noise_LA01;noise_LA95
37162;Laerm;68342;52.598;13.450;2023-06-14T00:01:34;36.90;32.46;49.71;;
37162;Laerm;68342;52.598;13.450;2023-06-14T00:04:00;36.60;32.31;50.01;;
37162;Laerm;68342;52.598;13.450;2023-06-14T00:06:26;36.68;32.49;48.38;;
37162;Laerm;68342;52.598;13.450;2023-06-14T00:08:52;37.12;32.36;48.74;;
37162;Laerm;68342;52.598;13.450;2023-06-14T00:11:20;39.45;32.30;53.37;;
37162;Laerm;68342;52.598;13.450;2023-06-14T00:13:45;40.49;32.32;54.22;;
37162;Laerm;68342;52.598;13.450;2023-06-14T00:16:11;36.50;32.29;50.07;;
37162;Laerm;68342;52.598;13.450;2023-06-14T00:18:36;36.79;32.52;47.51;;
37162;Laerm;68342;52.598;13.450;2023-06-14T00:21:01;36.71;32.40;49.79;;
37162;Laerm;68342;52.598;13.450;2023-06-14T00:23:27;36.65;32.23;54.58;;
37162;Laerm;68342;52.598;13.450;2023-06-14T00:25:52;36.20;32.22;47.14;;
37162;Laerm;68342;52.598;13.450;2023-06-14T00:28:17;36.27;32.22;48.10;;
37162;Laerm;68342;52.598;13.450;2023-06-14T00:30:43;36.28;32.16;50.86;;
37162;Laerm;68342;52.598;13.450;2023-06-14T00:33:11;36.91;32.87;49.20;;
37162;Laerm;68342;52.598;13.450;2023-06-14T00:35:36;36.49;32.47;52.28;;
37162;Laerm;68342;52.598;13.450;2023-06-14T00:38:02;36.22;32.02;48.96;;
37162;Laerm;68342;52.598;13.450;2023-06-14T00:40:27;36.46;32.51;49.57;;
37162;Laerm;68342;52.598;13.450;2023-06-14T00:42:52;36.57;32.51;50.05;;
37162;Laerm;68342;52.598;13.450;2023-06-14T00:45:18;36.40;32.53;48.67;;
37162;Laerm;68342;52.598;13.450;2023-06-14T00:47:43;36.68;32.73;50.61;;
37162;Laerm;68342;52.598;13.450;2023-06-14T00:50:10;36.64;32.79;55.48;;
37162;Laerm;68342;52.598;13.450;2023-06-14T00:52:36;36.35;32.32;50.51;;
37162;Laerm;68342;52.598;13.450;2023-06-14T00:55:02;36.28;32.18;47.72;;
37162;Laerm;68342;52.598;13.450;2023-06-14T00:57:27;36.87;32.39;49.54;;
37162;Laerm;68342;52.598;13.450;2023-06-14T00:59:54;36.44;32.28;49.07;;
37162;Laerm;68342;52.598;13.450;2023-06-14T01:02:23;36.66;32.71;48.07;;
37162;Laerm;68342;52.598;13.450;2023-06-14T01:04:51;36.42;32.24;49.33;;
37162;Laerm;68342;52.598;13.450;2023-06-14T01:12:13;36.83;32.88;47.92;;
37162;Laerm;68342;52.598;13.450;2023-06-14T01:14:44;40.55;32.51;51.19;;
37162;Laerm;68342;52.598;13.450;2023-06-14T01:17:11;38.16;32.82;54.69;;
37162;Laerm;68342;52.598;13.450;2023-06-14T01:19:42;41.26;32.57;54.86;;
37162;Laerm;68342;52.598;13.450;2023-06-14T01:22:07;39.80;32.50;54.50;;
37162;Laerm;68342;52.598;13.450;2023-06-14T01:24:33;40.60;32.54;54.52;;
37162;Laerm;68342;52.598;13.450;2023-06-14T01:27:02;40.30;32.69;54.75;;
37162;Laerm;68342;52.598;13.450;2023-06-14T01:29:28;37.49;32.57;55.08;;
37162;Laerm;68342;52.598;13.450;2023-06-14T01:31:58;36.81;32.61;47.74;;
37162;Laerm;68342;52.598;13.450;2023-06-14T01:34:23;36.85;32.17;51.55;;
37162;Laerm;68342;52.598;13.450;2023-06-14T01:36:49;37.54;33.03;46.73;;
37162;Laerm;68342;52.598;13.450;2023-06-14T01:39:17;37.24;33.26;54.18;;
37162;Laerm;68342;52.598;13.450;2023-06-14T01:41:43;37.67;33.45;47.94;;
37162;Laerm;68342;52.598;13.450;2023-06-14T01:44:10;37.54;32.98;47.12;;
37162;Laerm;68342;52.598;13.450;2023-06-14T01:46:37;37.76;33.49;49.44;;
37162;Laerm;68342;52.598;13.450;2023-06-14T01:49:02;37.24;32.76;54.80;;
37162;Laerm;68342;52.598;13.450;2023-06-14T01:51:28;42.75;34.47;51.71;;
37162;Laerm;68342;52.598;13.450;2023-06-14T01:53:54;38.50;33.47;52.00;;
37162;Laerm;68342;52.598;13.450;2023-06-14T01:56:20;37.94;33.38;47.64;;
37162;Laerm;68342;52.598;13.450;2023-06-14T01:58:46;40.75;33.48;50.88;;
37162;Laerm;68342;52.598;13.450;2023-06-14T02:01:13;42.28;34.41;56.88;;
37162;Laerm;68342;52.598;13.450;2023-06-14T02:03:41;38.68;34.65;50.26;;
37162;Laerm;68342;52.598;13.450;2023-06-14T02:06:07;37.19;33.43;48.69;;
37162;Laerm;68342;52.598;13.450;2023-06-14T02:08:32;37.23;33.09;47.78;;
37162;Laerm;68342;52.598;13.450;2023-06-14T02:10:58;38.58;34.21;52.58;;
37162;Laerm;68342;52.598;13.450;2023-06-14T02:13:23;38.69;34.14;49.77;;
37162;Laerm;68342;52.598;13.450;2023-06-14T02:15:48;39.36;34.32;50.80;;
37162;Laerm;68342;52.598;13.450;2023-06-14T02:18:16;37.61;33.62;49.94;;
37162;Laerm;68342;52.598;13.450;2023-06-14T02:20:41;39.11;33.54;47.83;;
37162;Laerm;68342;52.598;13.450;2023-06-14T02:23:06;37.96;34.22;47.38;;
37162;Laerm;68342;52.598;13.450;2023-06-14T02:25:33;38.74;34.57;48.49;;
37162;Laerm;68342;52.598;13.450;2023-06-14T02:27:58;41.10;34.27;53.60;;
37162;Laerm;68342;52.598;13.450;2023-06-14T02:30:26;40.13;35.70;49.98;;
37162;Laerm;68342;52.598;13.450;2023-06-14T02:32:52;39.76;34.57;50.20;;
37162;Laerm;68342;52.598;13.450;2023-06-14T02:35:18;39.22;33.82;48.10;;
37162;Laerm;68342;52.598;13.450;2023-06-14T02:37:45;40.31;35.10;50.26;;
37162;Laerm;68342;52.598;13.450;2023-06-14T02:40:10;40.46;35.38;48.96;;
37162;Laerm;68342;52.598;13.450;2023-06-14T02:42:36;41.11;34.31;57.28;;
37162;Laerm;68342;52.598;13.450;2023-06-14T02:45:01;41.48;35.63;54.43;;
37162;Laerm;68342;52.598;13.450;2023-06-14T02:47:28;40.69;35.87;53.10;;
37162;Laerm;68342;52.598;13.450;2023-06-14T02:49:53;40.39;35.57;52.59;;
37162;Laerm;68342;52.598;13.450;2023-06-14T02:52:18;41.53;35.07;53.54;;
37162;Laerm;68342;52.598;13.450;2023-06-14T02:54:44;42.61;36.05;53.83;;
37162;Laerm;68342;52.598;13.450;2023-06-14T02:57:12;42.81;35.93;55.12;;
37162;Laerm;68342;52.598;13.450;2023-06-14T02:59:37;43.17;36.20;58.46;;
37162;Laerm;68342;52.598;13.450;2023-06-14T03:02:03;42.46;36.34;56.85;;
37162;Laerm;68342;52.598;13.450;2023-06-14T03:04:28;47.12;36.41;62.39;;
37162;Laerm;68342;52.598;13.450;2023-06-14T03:06:54;46.11;37.61;59.66;;
37162;Laerm;68342;52.598;13.450;2023-06-14T03:09:19;44.30;36.93;56.06;;
37162;Laerm;68342;52.598;13.450;2023-06-14T03:11:45;45.93;36.13;64.15;;
37162;Laerm;68342;52.598;13.450;2023-06-14T03:14:10;43.86;36.77;54.11;;
37162;Laerm;68342;52.598;13.450;2023-06-14T03:16:36;44.55;36.99;60.58;;
37162;Laerm;68342;52.598;13.450;2023-06-14T03:19:02;45.93;36.92;54.98;;
37162;Laerm;68342;52.598;13.450;2023-06-14T03:21:27;44.80;37.64;60.46;;
37162;Laerm;68342;52.598;13.450;2023-06-14T03:23:53;47.75;37.66;60.75;;
37162;Laerm;68342;52.598;13.450;2023-06-14T03:26:18;46.01;37.53;59.33;;
37162;Laerm;68342;52.598;13.450;2023-06-14T03:28:44;46.86;37.58;60.31;;
37162;Laerm;68342;52.598;13.450;2023-06-14T03:31:10;46.80;38.07;59.19;;
37162;Laerm;68342;52.598;13.450;2023-06-14T03:33:35;43.59;36.86;59.76;;
37162;Laerm;68342;52.598;13.450;2023-06-14T03:36:03;41.03;36.50;58.11;;
37162;Laerm;68342;52.598;13.450;2023-06-14T03:38:29;41.09;36.94;52.24;;
37162;Laerm;68342;52.598;13.450;2023-06-14T03:40:54;41.15;37.34;51.79;;
37162;Laerm;68342;52.598;13.450;2023-06-14T03:43:20;40.72;36.63;50.07;;
37162;Laerm;68342;52.598;13.450;2023-06-14T03:45:45;42.19;37.02;52.68;;
37162;Laerm;68342;52.598;13.450;2023-06-14T03:48:11;44.09;36.79;73.34;;
37162;Laerm;68342;52.598;13.450;2023-06-14T03:50:36;42.81;38.17;58.72;;
37162;Laerm;68342;52.598;13.450;2023-06-14T03:53:05;43.72;37.43;60.03;;
37162;Laerm;68342;52.598;13.450;2023-06-14T03:55:31;43.03;37.36;55.94;;
37162;Laerm;68342;52.598;13.450;2023-06-14T03:57:56;43.19;38.83;54.49;;
37162;Laerm;68342;52.598;13.450;2023-06-14T04:00:22;45.26;40.45;57.77;;
37162;Laerm;68342;52.598;13.450;2023-06-14T04:02:47;47.66;40.95;61.52;;
37162;Laerm;68342;52.598;13.450;2023-06-14T04:05:13;49.81;38.66;64.51;;
37162;Laerm;68342;52.598;13.450;2023-06-14T04:07:38;44.20;38.40;67.33;;
37162;Laerm;68342;52.598;13.450;2023-06-14T04:10:10;43.89;37.61;52.25;;
37162;Laerm;68342;52.598;13.450;2023-06-14T04:12:35;43.41;38.22;56.25;;
37162;Laerm;68342;52.598;13.450;2023-06-14T04:15:01;44.03;37.85;58.01;;
37162;Laerm;68342;52.598;13.450;2023-06-14T04:17:26;44.96;37.34;64.52;;
37162;Laerm;68342;52.598;13.450;2023-06-14T04:19:51;43.12;38.00;56.58;;
37162;Laerm;68342;52.598;13.450;2023-06-14T04:22:17;42.75;37.54;55.12;;
37162;Laerm;68342;52.598;13.450;2023-06-14T04:24:43;42.64;37.45;56.98;;
37162;Laerm;68342;52.598;13.450;2023-06-14T04:27:09;42.19;37.13;58.32;;
37162;Laerm;68342;52.598;13.450;2023-06-14T04:29:35;44.34;37.35;58.20;;
37162;Laerm;68342;52.598;13.450;2023-06-14T04:32:01;44.01;36.88;59.80;;
37162;Laerm;68342;52.598;13.450;2023-06-14T04:34:26;41.64;37.29;53.94;;
37162;Laerm;68342;52.598;13.450;2023-06-14T04:36:54;41.73;36.84;59.04;;
37162;Laerm;68342;52.598;13.450;2023-06-14T04:39:20;50.63;37.22;68.52;;
37162;Laerm;68342;52.598;13.450;2023-06-14T04:41:46;50.51;37.38;64.19;;
37162;Laerm;68342;52.598;13.450;2023-06-14T04:44:12;42.60;37.42;61.85;;
37162;Laerm;68342;52.598;13.450;2023-06-14T04:46:38;40.87;37.24;51.33;;
37162;Laerm;68342;52.598;13.450;2023-06-14T04:49:10;43.95;37.12;63.75;;
37162;Laerm;68342;52.598;13.450;2023-06-14T04:51:39;47.62;37.93;64.05;;
37162;Laerm;68342;52.598;13.450;2023-06-14T04:54:05;41.27;36.82;52.57;;
37162;Laerm;68342;52.598;13.450;2023-06-14T04:56:30;45.38;36.47;62.71;;
37162;Laerm;68342;52.598;13.450;2023-06-14T04:58:55;44.95;36.64;61.24;;
37162;Laerm;68342;52.598;13.450;2023-06-14T05:01:21;44.63;38.11;63.45;;
37162;Laerm;68342;52.598;13.450;2023-06-14T05:03:48;45.73;37.59;62.82;;
37162;Laerm;68342;52.598;13.450;2023-06-14T05:06:14;48.84;37.61;63.70;;
37162;Laerm;68342;52.598;13.450;2023-06-14T05:08:40;48.84;37.35;64.08;;
37162;Laerm;68342;52.598;13.450;2023-06-14T05:11:05;45.91;37.45;67.17;;
37162;Laerm;68342;52.598;13.450;2023-06-14T05:13:31;42.33;37.09;57.87;;
37162;Laerm;68342;52.598;13.450;2023-06-14T05:15:57;42.93;37.75;57.18;;
37162;Laerm;68342;52.598;13.450;2023-06-14T05:18:23;42.22;37.22;58.92;;
37162;Laerm;68342;52.598;13.450;2023-06-14T05:20:50;43.68;37.95;60.69;;
37162;Laerm;68342;52.598;13.450;2023-06-14T05:23:15;43.10;37.89;62.03;;
37162;Laerm;68342;52.598;13.450;2023-06-14T05:25:43;42.02;37.63;52.78;;
37162;Laerm;68342;52.598;13.450;2023-06-14T05:28:09;46.70;38.18;60.83;;
37162;Laerm;68342;52.598;13.450;2023-06-14T05:30:35;44.02;37.73;59.58;;
37162;Laerm;68342;52.598;13.450;2023-06-14T05:33:01;44.35;38.04;57.91;;
37162;Laerm;68342;52.598;13.450;2023-06-14T05:35:26;46.65;39.49;64.61;;
37162;Laerm;68342;52.598;13.450;2023-06-14T05:37:52;42.67;39.53;55.40;;
37162;Laerm;68342;52.598;13.450;2023-06-14T05:40:17;44.23;40.21;56.65;;
37162;Laerm;68342;52.598;13.450;2023-06-14T05:42:43;45.23;39.52;65.06;;
37162;Laerm;68342;52.598;13.450;2023-06-14T05:45:08;49.05;39.58;65.78;;
37162;Laerm;68342;52.598;13.450;2023-06-14T05:47:33;42.13;39.05;60.63;;
37162;Laerm;68342;52.598;13.450;2023-06-14T05:49:59;44.18;38.98;61.34;;
37162;Laerm;68342;52.598;13.450;2023-06-14T05:52:24;44.39;39.33;60.15;;
37162;Laerm;68342;52.598;13.450;2023-06-14T05:54:50;41.84;38.12;52.89;;
37162;Laerm;68342;52.598;13.450;2023-06-14T05:57:18;41.98;38.42;52.68;;
37162;Laerm;68342;52.598;13.450;2023-06-14T05:59:43;45.70;38.56;64.39;;
37162;Laerm;68342;52.598;13.450;2023-06-14T06:02:08;42.28;38.01;54.69;;
37162;Laerm;68342;52.598;13.450;2023-06-14T06:04:34;42.12;38.27;53.25;;
37162;Laerm;68342;52.598;13.450;2023-06-14T06:06:59;44.36;38.31;59.28;;
37162;Laerm;68342;52.598;13.450;2023-06-14T06:09:25;47.17;38.30;74.96;;
37162;Laerm;68342;52.598;13.450;2023-06-14T06:11:51;45.58;38.42;60.68;;
37162;Laerm;68342;52.598;13.450;2023-06-14T06:14:16;42.82;38.36;58.79;;
37162;Laerm;68342;52.598;13.450;2023-06-14T06:16:41;42.43;37.95;52.79;;
37162;Laerm;68342;52.598;13.450;2023-06-14T06:19:06;47.20;37.77;63.26;;
37162;Laerm;68342;52.598;13.450;2023-06-14T06:21:32;45.95;37.75;65.53;;
37162;Laerm;68342;52.598;13.450;2023-06-14T06:24:00;44.71;38.33;60.01;;
37162;Laerm;68342;52.598;13.450;2023-06-14T06:26:28;42.60;38.59;57.28;;
37162;Laerm;68342;52.598;13.450;2023-06-14T06:28:53;44.19;38.23;57.79;;
37162;Laerm;68342;52.598;13.450;2023-06-14T06:31:19;43.16;39.24;52.77;;
37162;Laerm;68342;52.598;13.450;2023-06-14T06:33:45;44.15;38.89;60.81;;
37162;Laerm;68342;52.598;13.450;2023-06-14T06:36:13;42.85;38.74;62.30;;
37162;Laerm;68342;52.598;13.450;2023-06-14T06:38:38;42.34;38.61;55.89;;
37162;Laerm;68342;52.598;13.450;2023-06-14T06:41:04;41.88;38.27;56.02;;
37162;Laerm;68342;52.598;13.450;2023-06-14T06:43:29;43.11;38.35;58.98;;
37162;Laerm;68342;52.598;13.450;2023-06-14T06:45:54;42.66;37.90;57.18;;
37162;Laerm;68342;52.598;13.450;2023-06-14T06:48:20;42.84;38.18;56.60;;
37162;Laerm;68342;52.598;13.450;2023-06-14T06:50:45;47.86;38.72;60.79;;
37162;Laerm;68342;52.598;13.450;2023-06-14T06:53:10;41.67;37.21;55.94;;
37162;Laerm;68342;52.598;13.450;2023-06-14T06:55:36;43.17;37.56;58.87;;
37162;Laerm;68342;52.598;13.450;2023-06-14T06:58:01;48.35;37.43;62.59;;
37162;Laerm;68342;52.598;13.450;2023-06-14T07:00:26;46.22;37.91;59.14;;
37162;Laerm;68342;52.598;13.450;2023-06-14T07:02:52;46.12;38.27;62.73;;
37162;Laerm;68342;52.598;13.450;2023-06-14T07:05:20;44.49;37.86;64.14;;
37162;Laerm;68342;52.598;13.450;2023-06-14T07:07:45;46.94;37.91;65.09;;
37162;Laerm;68342;52.598;13.450;2023-06-14T07:10:10;46.21;38.15;65.43;;
37162;Laerm;68342;52.598;13.450;2023-06-14T07:12:35;41.63;37.29;54.92;;
37162;Laerm;68342;52.598;13.450;2023-06-14T07:15:07;40.82;36.42;53.03;;
37162;Laerm;68342;52.598;13.450;2023-06-14T07:17:33;43.31;38.21;61.57;;
37162;Laerm;68342;52.598;13.450;2023-06-14T07:19:59;43.60;37.27;56.65;;
37162;Laerm;68342;52.598;13.450;2023-06-14T07:22:25;43.69;37.07;62.34;;
37162;Laerm;68342;52.598;13.450;2023-06-14T07:24:51;43.68;37.15;56.12;;
37162;Laerm;68342;52.598;13.450;2023-06-14T07:27:16;41.62;37.09;55.52;;
37162;Laerm;68342;52.598;13.450;2023-06-14T07:29:42;42.48;37.27;55.72;;
37162;Laerm;68342;52.598;13.450;2023-06-14T07:32:07;44.03;37.36;59.82;;
37162;Laerm;68342;52.598;13.450;2023-06-14T07:34:32;41.61;37.38;57.38;;
37162;Laerm;68342;52.598;13.450;2023-06-14T07:36:57;41.06;37.30;52.04;;
37162;Laerm;68342;52.598;13.450;2023-06-14T07:39:23;41.61;36.67;54.04;;
37162;Laerm;68342;52.598;13.450;2023-06-14T07:41:48;41.14;36.97;55.21;;
37162;Laerm;68342;52.598;13.450;2023-06-14T07:44:13;42.35;36.66;56.86;;
37162;Laerm;68342;52.598;13.450;2023-06-14T07:46:39;39.84;36.36;49.68;;
37162;Laerm;68342;52.598;13.450;2023-06-14T07:49:05;44.35;37.38;61.94;;
37162;Laerm;68342;52.598;13.450;2023-06-14T07:51:30;43.33;37.25;59.66;;
37162;Laerm;68342;52.598;13.450;2023-06-14T07:53:56;41.87;36.51;59.54;;
37162;Laerm;68342;52.598;13.450;2023-06-14T07:56:21;43.45;36.94;61.39;;
37162;Laerm;68342;52.598;13.450;2023-06-14T07:58:48;42.05;36.85;57.34;;
37162;Laerm;68342;52.598;13.450;2023-06-14T08:01:13;43.81;36.46;59.18;;
37162;Laerm;68342;52.598;13.450;2023-06-14T08:03:38;41.75;36.58;55.83;;
37162;Laerm;68342;52.598;13.450;2023-06-14T08:06:04;43.48;36.44;58.18;;
37162;Laerm;68342;52.598;13.450;2023-06-14T08:08:30;45.60;35.99;71.20;;
37162;Laerm;68342;52.598;13.450;2023-06-14T08:10:55;42.82;37.67;54.12;;
37162;Laerm;68342;52.598;13.450;2023-06-14T08:13:21;48.68;37.11;62.55;;
37162;Laerm;68342;52.598;13.450;2023-06-14T08:15:46;40.96;37.04;55.26;;
37162;Laerm;68342;52.598;13.450;2023-06-14T08:18:12;44.18;37.24;57.29;;
37162;Laerm;68342;52.598;13.450;2023-06-14T08:20:40;47.13;36.73;61.58;;
37162;Laerm;68342;52.598;13.450;2023-06-14T08:23:05;46.34;36.80;61.71;;
37162;Laerm;68342;52.598;13.450;2023-06-14T08:25:31;45.03;37.78;60.87;;
37162;Laerm;68342;52.598;13.450;2023-06-14T08:27:56;41.93;37.24;54.92;;
37162;Laerm;68342;52.598;13.450;2023-06-14T08:30:22;42.41;37.79;56.55;;
37162;Laerm;68342;52.598;13.450;2023-06-14T08:32:47;41.57;37.17;57.58;;
37162;Laerm;68342;52.598;13.450;2023-06-14T08:35:12;43.44;37.58;60.61;;
37162;Laerm;68342;52.598;13.450;2023-06-14T08:37:38;48.44;38.73;75.12;;
37162;Laerm;68342;52.598;13.450;2023-06-14T08:40:05;51.14;39.09;64.53;;
37162;Laerm;68342;52.598;13.450;2023-06-14T08:42:33;44.54;38.18;59.99;;
37162;Laerm;68342;52.598;13.450;2023-06-14T08:44:58;46.41;37.51;61.04;;
37162;Laerm;68342;52.598;13.450;2023-06-14T08:47:25;47.11;38.55;62.46;;
37162;Laerm;68342;52.598;13.450;2023-06-14T08:49:51;47.24;37.63;72.78;;
37162;Laerm;68342;52.598;13.450;2023-06-14T08:52:20;44.25;37.54;57.42;;
37162;Laerm;68342;52.598;13.450;2023-06-14T08:54:46;42.59;36.62;56.46;;
37162;Laerm;68342;52.598;13.450;2023-06-14T08:57:13;43.01;36.63;61.11;;
37162;Laerm;68342;52.598;13.450;2023-06-14T08:59:45;42.82;36.74;57.22;;
37162;Laerm;68342;52.598;13.450;2023-06-14T09:02:11;46.17;37.62;60.90;;
37162;Laerm;68342;52.598;13.450;2023-06-14T09:04:38;45.27;36.77;56.00;;
37162;Laerm;68342;52.598;13.450;2023-06-14T09:07:05;44.12;37.08;56.03;;
37162;Laerm;68342;52.598;13.450;2023-06-14T09:09:31;44.66;37.67;57.57;;
37162;Laerm;68342;52.598;13.450;2023-06-14T09:12:00;48.20;37.05;63.23;;
37162;Laerm;68342;52.598;13.450;2023-06-14T09:14:25;45.66;37.12;64.76;;
37162;Laerm;68342;52.598;13.450;2023-06-14T09:16:54;42.94;36.37;59.25;;
37162;Laerm;68342;52.598;13.450;2023-06-14T09:19:25;43.85;36.80;59.30;;
37162;Laerm;68342;52.598;13.450;2023-06-14T09:21:50;42.34;36.44;54.68;;
37162;Laerm;68342;52.598;13.450;2023-06-14T09:24:17;39.90;35.88;49.44;;
37162;Laerm;68342;52.598;13.450;2023-06-14T09:26:43;41.34;36.84;56.66;;
37162;Laerm;68342;52.598;13.450;2023-06-14T09:29:09;41.78;37.67;54.50;;
37162;Laerm;68342;52.598;13.450;2023-06-14T09:31:34;47.08;38.52;64.22;;
37162;Laerm;68342;52.598;13.450;2023-06-14T09:34:01;42.12;36.97;59.59;;
37162;Laerm;68342;52.598;13.450;2023-06-14T09:36:31;41.60;37.08;52.74;;
37162;Laerm;68342;52.598;13.450;2023-06-14T09:39:00;43.72;38.00;58.42;;
37162;Laerm;68342;52.598;13.450;2023-06-14T09:41:38;47.42;36.21;67.93;;
37162;Laerm;68342;52.598;13.450;2023-06-14T09:44:05;49.50;37.18;65.65;;
37162;Laerm;68342;52.598;13.450;2023-06-14T09:46:32;41.58;36.52;57.80;;
37162;Laerm;68342;52.598;13.450;2023-06-14T09:48:57;42.28;36.26;57.96;;
37162;Laerm;68342;52.598;13.450;2023-06-14T09:51:23;43.49;36.64;56.97;;
37162;Laerm;68342;52.598;13.450;2023-06-14T09:53:49;44.06;36.75;58.03;;
37162;Laerm;68342;52.598;13.450;2023-06-14T09:56:22;44.45;36.77;58.53;;
37162;Laerm;68342;52.598;13.450;2023-06-14T09:58:48;43.07;37.90;57.41;;
37162;Laerm;68342;52.598;13.450;2023-06-14T10:01:16;43.29;37.47;55.96;;
37162;Laerm;68342;52.598;13.450;2023-06-14T10:03:42;45.56;37.34;59.62;;
37162;Laerm;68342;52.598;13.450;2023-06-14T10:06:09;42.74;37.55;55.80;;
37162;Laerm;68342;52.598;13.450;2023-06-14T10:11:02;43.89;37.24;64.96;;
37162;Laerm;68342;52.598;13.450;2023-06-14T10:13:31;45.28;37.07;64.05;;
37162;Laerm;68342;52.598;13.450;2023-06-14T10:18:31;47.21;36.73;69.97;;
37162;Laerm;68342;52.598;13.450;2023-06-14T10:23:24;51.16;36.75;72.35;;
37162;Laerm;68342;52.598;13.450;2023-06-14T10:25:54;41.36;36.85;54.47;;
37162;Laerm;68342;52.598;13.450;2023-06-14T10:28:22;45.05;37.23;60.86;;
37162;Laerm;68342;52.598;13.450;2023-06-14T10:31:04;45.14;36.82;59.62;;
37162;Laerm;68342;52.598;13.450;2023-06-14T10:33:30;41.94;36.29;56.49;;
37162;Laerm;68342;52.598;13.450;2023-06-14T10:38:40;40.45;36.30;52.16;;
37162;Laerm;68342;52.598;13.450;2023-06-14T10:41:07;40.71;36.09;53.30;;
37162;Laerm;68342;52.598;13.450;2023-06-14T10:43:32;41.85;36.61;62.58;;
37162;Laerm;68342;52.598;13.450;2023-06-14T10:46:18;47.19;36.59;68.08;;
37162;Laerm;68342;52.598;13.450;2023-06-14T10:48:48;40.93;36.43;57.38;;
37162;Laerm;68342;52.598;13.450;2023-06-14T10:51:16;43.68;36.53;60.22;;
37162;Laerm;68342;52.598;13.450;2023-06-14T10:53:45;46.18;36.91;78.68;;
37162;Laerm;68342;52.598;13.450;2023-06-14T10:56:25;47.61;37.59;70.93;;
37162;Laerm;68342;52.598;13.450;2023-06-14T10:58:52;46.10;36.48;58.80;;
37162;Laerm;68342;52.598;13.450;2023-06-14T11:01:49;42.70;37.32;60.04;;
37162;Laerm;68342;52.598;13.450;2023-06-14T11:04:10;46.39;37.27;55.07;;
37162;Laerm;68342;52.598;13.450;2023-06-14T11:06:54;42.68;37.28;60.39;;
37162;Laerm;68342;52.598;13.450;2023-06-14T11:09:31;42.11;36.51;62.37;;
37162;Laerm;68342;52.598;13.450;2023-06-14T11:12:07;39.80;35.87;55.58;;
37162;Laerm;68342;52.598;13.450;2023-06-14T11:14:35;42.65;36.40;60.48;;
37162;Laerm;68342;52.598;13.450;2023-06-14T11:17:06;46.04;37.11;64.32;;
37162;Laerm;68342;52.598;13.450;2023-06-14T11:19:32;42.30;36.61;59.00;;
37162;Laerm;68342;52.598;13.450;2023-06-14T11:21:57;50.41;36.43;76.15;;
37162;Laerm;68342;52.598;13.450;2023-06-14T11:24:24;56.93;37.02;75.42;;
37162;Laerm;68342;52.598;13.450;2023-06-14T11:26:49;47.41;37.05;69.17;;
37162;Laerm;68342;52.598;13.450;2023-06-14T11:29:15;41.68;36.86;56.32;;
37162;Laerm;68342;52.598;13.450;2023-06-14T11:31:48;41.02;35.92;63.04;;
37162;Laerm;68342;52.598;13.450;2023-06-14T11:34:20;43.41;36.69;61.79;;
37162;Laerm;68342;52.598;13.450;2023-06-14T11:37:29;42.92;37.24;60.50;;
37162;Laerm;68342;52.598;13.450;2023-06-14T11:40:00;42.77;37.66;54.75;;
37162;Laerm;68342;52.598;13.450;2023-06-14T11:42:28;42.49;36.23;59.22;;
37162;Laerm;68342;52.598;13.450;2023-06-14T11:44:54;45.41;36.53;63.33;;
37162;Laerm;68342;52.598;13.450;2023-06-14T11:47:22;43.71;36.66;60.16;;
37162;Laerm;68342;52.598;13.450;2023-06-14T11:49:50;47.45;37.39;65.52;;
37162;Laerm;68342;52.598;13.450;2023-06-14T11:52:19;45.16;35.83;59.93;;
37162;Laerm;68342;52.598;13.450;2023-06-14T11:54:48;43.66;37.47;57.97;;
37162;Laerm;68342;52.598;13.450;2023-06-14T11:57:19;40.77;36.71;51.87;;
37162;Laerm;68342;52.598;13.450;2023-06-14T11:59:48;41.13;36.54;51.52;;
37162;Laerm;68342;52.598;13.450;2023-06-14T12:02:14;41.94;35.93;57.28;;
37162;Laerm;68342;52.598;13.450;2023-06-14T12:04:51;40.40;36.68;57.05;;
37162;Laerm;68342;52.598;13.450;2023-06-14T12:07:18;49.89;37.53;60.86;;
37162;Laerm;68342;52.598;13.450;2023-06-14T12:12:17;42.29;37.33;61.80;;
37162;Laerm;68342;52.598;13.450;2023-06-14T12:14:42;41.47;36.85;64.47;;
37162;Laerm;68342;52.598;13.450;2023-06-14T12:17:16;40.42;36.78;56.06;;
37162;Laerm;68342;52.598;13.450;2023-06-14T12:19:45;41.37;37.52;50.51;;
37162;Laerm;68342;52.598;13.450;2023-06-14T12:22:11;39.96;36.57;50.51;;
37162;Laerm;68342;52.598;13.450;2023-06-14T12:24:45;42.17;36.85;56.79;;
37162;Laerm;68342;52.598;13.450;2023-06-14T12:27:21;40.86;36.70;55.70;;
37162;Laerm;68342;52.598;13.450;2023-06-14T12:29:58;40.47;36.94;49.33;;
37162;Laerm;68342;52.598;13.450;2023-06-14T12:32:23;41.28;36.65;61.79;;
37162;Laerm;68342;52.598;13.450;2023-06-14T12:34:55;39.83;36.37;55.28;;
37162;Laerm;68342;52.598;13.450;2023-06-14T12:37:26;42.44;37.26;56.04;;
37162;Laerm;68342;52.598;13.450;2023-06-14T12:39:52;41.52;36.39;53.77;;
37162;Laerm;68342;52.598;13.450;2023-06-14T12:42:19;43.84;36.12;58.22;;
37162;Laerm;68342;52.598;13.450;2023-06-14T12:44:44;45.11;37.98;61.15;;
37162;Laerm;68342;52.598;13.450;2023-06-14T12:47:10;43.60;37.84;59.98;;
37162;Laerm;68342;52.598;13.450;2023-06-14T12:49:35;44.76;37.72;68.55;;
37162;Laerm;68342;52.598;13.450;2023-06-14T12:52:00;41.67;36.01;56.25;;
37162;Laerm;68342;52.598;13.450;2023-06-14T12:54:26;39.90;35.90;50.35;;
37162;Laerm;68342;52.598;13.450;2023-06-14T12:56:51;43.63;37.09;61.61;;
37162;Laerm;68342;52.598;13.450;2023-06-14T12:59:21;51.96;37.29;79.72;;
37162;Laerm;68342;52.598;13.450;2023-06-14T13:01:46;44.53;36.89;61.81;;
37162;Laerm;68342;52.598;13.450;2023-06-14T13:04:14;44.44;39.02;57.76;;
37162;Laerm;68342;52.598;13.450;2023-06-14T13:06:40;43.36;38.28;61.40;;
37162;Laerm;68342;52.598;13.450;2023-06-14T13:09:05;42.35;38.25;54.97;;
37162;Laerm;68342;52.598;13.450;2023-06-14T13:11:31;42.02;37.82;54.37;;
37162;Laerm;68342;52.598;13.450;2023-06-14T13:13:56;46.43;38.26;59.46;;
37162;Laerm;68342;52.598;13.450;2023-06-14T13:16:21;54.74;38.20;67.80;;
37162;Laerm;68342;52.598;13.450;2023-06-14T13:18:46;45.75;38.15;56.13;;
37162;Laerm;68342;52.598;13.450;2023-06-14T13:21:12;44.05;37.45;59.20;;
37162;Laerm;68342;52.598;13.450;2023-06-14T13:23:37;44.44;38.60;57.21;;
37162;Laerm;68342;52.598;13.450;2023-06-14T13:26:02;46.06;38.50;66.64;;
37162;Laerm;68342;52.598;13.450;2023-06-14T13:28:28;42.96;37.79;60.52;;
37162;Laerm;68342;52.598;13.450;2023-06-14T13:30:53;43.31;38.00;58.68;;
37162;Laerm;68342;52.598;13.450;2023-06-14T13:33:20;43.54;37.71;54.42;;
37162;Laerm;68342;52.598;13.450;2023-06-14T13:35:46;42.97;37.62;52.86;;
37162;Laerm;68342;52.598;13.450;2023-06-14T13:38:11;43.98;37.72;55.57;;
37162;Laerm;68342;52.598;13.450;2023-06-14T13:40:36;42.78;38.03;59.12;;
37162;Laerm;68342;52.598;13.450;2023-06-14T13:43:01;44.93;38.19;57.81;;
37162;Laerm;68342;52.598;13.450;2023-06-14T13:45:27;41.91;37.91;54.14;;
37162;Laerm;68342;52.598;13.450;2023-06-14T13:47:52;43.36;37.70;62.22;;